ESNQ

Kiruna Airport

Sweden
METAR ESNQ 212250Z AUTO 24010KT 9999 SCT051/// BKN059/// 05/02 Q1010
Observed Flight Rules
Aug-21 @ 22:50 UTC (58 minutes ago) Visual Flight Rules
Wind Visibility Clouds
240° at 10 knots 10,000+ meters
  • Scattered at 5,100' AGL
  • Broken at 5,900' AGL
Temperatures Readings
Current 5°C / 41°F
Dewpoint 2°C / 36°F
Humidity 81%
Altimeter 29.82" Hg
Pressure 1010 hPa
Elevation 452
METAR ESNQ 212250Z AUTO 24010KT 9999 SCT051/// BKN059/// 05/02 Q1010
Observed Flight Rules
Aug-21 @ 22:50 UTC
(58 minutes ago)
VFR
Wind Visibility
240° at 10 knots 10,000+ meters
Clouds
  • Scattered at 5,100' AGL
  • Broken at 5,900' AGL
Temperature Dewpoint
5°C / 41°F 2°C / 36°F
Humidity Altimeter Pressure
81% 29.82" Hg 1010 hPa